createdAt,value
2023-05-20T00:02:00.256Z,97726.00
2023-05-20T00:04:28.178Z,97719.03
2023-05-20T00:06:56.587Z,97717.22
2023-05-20T00:09:24.516Z,97721.66
2023-05-20T00:11:53.852Z,97713.84
2023-05-20T00:14:22.030Z,97708.66
2023-05-20T00:16:50.168Z,97704.88
2023-05-20T00:19:18.126Z,97711.16
2023-05-20T00:21:46.351Z,97710.63
2023-05-20T00:24:14.549Z,97709.50
2023-05-20T00:26:42.401Z,97722.06
2023-05-20T00:29:11.743Z,97721.47
2023-05-20T00:31:39.860Z,97724.66
2023-05-20T00:34:07.844Z,97720.88
2023-05-20T00:36:36.612Z,97677.84
2023-05-20T00:39:04.817Z,97718.06
2023-05-20T00:41:33.866Z,97719.34
2023-05-20T00:44:01.747Z,97702.97
2023-05-20T00:46:31.220Z,97717.34
2023-05-20T00:48:59.459Z,97715.78
2023-05-20T00:51:27.356Z,97715.25
2023-05-20T00:53:55.552Z,97718.72
2023-05-20T00:56:24.175Z,97713.78
2023-05-20T00:58:52.239Z,97707.03
2023-05-20T01:01:20.126Z,97704.50
2023-05-20T01:03:49.829Z,97699.31
2023-05-20T01:06:17.888Z,97702.16
2023-05-20T01:08:46.078Z,97700.34
2023-05-20T01:11:19.178Z,97703.22
2023-05-20T01:13:50.428Z,97703.13
2023-05-20T01:16:20.278Z,97699.72
2023-05-20T01:18:49.854Z,97696.88
2023-05-20T01:21:18.801Z,97676.19
2023-05-20T01:23:48.550Z,97700.19
2023-05-20T01:26:17.412Z,97701.22
2023-05-20T01:28:45.878Z,97702.25
2023-05-20T01:31:18.560Z,97692.88
2023-05-20T01:33:47.748Z,97692.97
2023-05-20T01:36:15.769Z,97696.47
2023-05-20T01:38:43.990Z,97686.56
2023-05-20T01:41:14.358Z,97685.81
2023-05-20T01:43:43.941Z,97686.00
2023-05-20T01:46:11.903Z,97693.06
2023-05-20T01:48:39.972Z,97689.06
2023-05-20T01:51:07.879Z,97675.25
2023-05-20T01:53:35.772Z,97674.69
2023-05-20T01:56:03.636Z,97680.19
2023-05-20T01:58:32.877Z,97675.97
2023-05-20T02:01:01.752Z,97676.06
2023-05-20T02:03:29.742Z,97667.81
2023-05-20T02:05:57.660Z,97673.81
2023-05-20T02:08:25.629Z,97666.22
2023-05-20T02:10:53.494Z,97660.09
2023-05-20T02:13:21.511Z,97661.97
2023-05-20T02:15:50.669Z,97663.25
2023-05-20T02:18:18.676Z,97667.25
2023-05-20T02:20:46.718Z,97663.22
2023-05-20T02:23:14.621Z,97663.63
2023-05-20T02:25:42.487Z,97656.13
2023-05-20T02:28:10.750Z,97661.75
2023-05-20T02:30:38.861Z,97663.63
2023-05-20T02:33:09.773Z,97656.84
2023-05-20T02:35:37.979Z,97667.63
2023-05-20T02:38:05.848Z,97656.41
2023-05-20T02:40:33.652Z,97652.00
2023-05-20T02:43:01.873Z,97657.38
2023-05-20T02:45:30.041Z,97639.63
2023-05-20T02:47:58.022Z,97642.06
2023-05-20T02:50:27.243Z,97654.09
2023-05-20T02:52:55.088Z,97646.09
2023-05-20T02:55:23.790Z,97648.63
2023-05-20T02:57:51.959Z,97647.13
2023-05-20T03:00:19.847Z,97645.84
2023-05-20T03:02:47.760Z,97645.13
2023-05-20T03:05:15.772Z,97645.41
2023-05-20T03:07:46.485Z,97642.00
2023-05-20T03:10:14.389Z,97640.34
2023-05-20T03:12:42.256Z,97645.31
2023-05-20T03:15:10.902Z,97644.78
2023-05-20T03:17:38.807Z,97641.38
2023-05-20T03:20:08.276Z,97639.69
2023-05-20T03:22:36.245Z,97643.25
2023-05-20T03:25:06.399Z,97643.25
2023-05-20T03:27:34.511Z,97640.63
2023-05-20T03:30:02.451Z,97650.13
2023-05-20T03:32:30.307Z,97643.25
2023-05-20T03:34:58.404Z,97641.47
2023-05-20T03:37:26.225Z,97640.94
2023-05-20T03:39:54.103Z,97633.34
2023-05-20T03:42:23.298Z,97639.56
2023-05-20T03:44:51.283Z,97632.69
2023-05-20T03:47:19.083Z,97621.69
2023-05-20T03:49:46.920Z,97638.16
2023-05-20T03:52:14.757Z,97628.16
2023-05-20T03:54:42.654Z,97635.22
2023-05-20T03:57:10.598Z,97627.41
2023-05-20T03:59:39.967Z,97629.97
2023-05-20T04:02:08.214Z,97631.66
2023-05-20T04:04:36.267Z,97629.00
2023-05-20T04:07:05.124Z,97632.50
2023-05-20T04:09:33.161Z,97624.69
2023-05-20T04:12:01.050Z,97628.91
2023-05-20T04:14:28.936Z,97624.19
2023-05-20T04:16:58.279Z,97620.47
2023-05-20T04:19:28.527Z,97620.59
2023-05-20T04:21:57.328Z,97619.25
2023-05-20T04:24:26.928Z,97625.16
2023-05-20T04:26:54.755Z,97614.19
2023-05-20T04:29:23.148Z,97622.34
2023-05-20T04:31:51.128Z,97634.34
2023-05-20T04:34:27.038Z,97615.81
2023-05-20T04:36:54.981Z,97624.34
2023-05-20T04:39:22.821Z,97632.25
2023-05-20T04:41:51.102Z,97613.69
2023-05-20T04:44:18.945Z,97623.09
2023-05-20T04:46:46.848Z,97620.34
2023-05-20T04:49:15.311Z,97627.31
2023-05-20T04:51:44.518Z,97613.00
2023-05-20T04:54:12.324Z,97613.63
2023-05-20T04:56:40.435Z,97617.00
2023-05-20T04:59:09.728Z,97615.22
2023-05-20T05:01:37.673Z,97620.59
2023-05-20T05:04:06.246Z,97621.44
2023-05-20T05:06:34.270Z,97618.56
2023-05-20T05:09:03.759Z,97599.25
2023-05-20T05:11:31.784Z,97611.41
2023-05-20T05:13:59.549Z,97619.13
2023-05-20T05:16:27.444Z,97618.91
2023-05-20T05:18:55.301Z,97614.19
2023-05-20T05:21:23.273Z,97614.59
2023-05-20T05:23:51.133Z,97609.09
2023-05-20T05:26:20.337Z,97604.78
2023-05-20T05:28:48.106Z,97615.56
2023-05-20T05:31:15.944Z,97618.53
2023-05-20T05:33:43.749Z,97608.38
2023-05-20T05:36:11.585Z,97609.00
2023-05-20T05:38:39.392Z,97599.56
2023-05-20T05:41:07.418Z,97598.47
2023-05-20T05:43:36.596Z,97569.97
2023-05-20T05:46:05.167Z,97596.81
2023-05-20T05:48:33.015Z,97593.44
2023-05-20T05:51:00.824Z,97586.47
2023-05-20T05:53:28.668Z,97589.34
2023-05-20T05:55:56.476Z,97594.91
2023-05-20T05:58:24.336Z,97599.75
2023-05-20T06:00:54.928Z,97594.41
2023-05-20T06:03:23.151Z,97597.72
2023-05-20T06:05:51.104Z,97601.25
2023-05-20T06:08:18.910Z,97595.22
2023-05-20T06:10:49.079Z,97596.72
2023-05-20T06:13:16.934Z,97596.50
2023-05-20T06:15:46.102Z,97597.34
2023-05-20T06:18:15.258Z,97607.38
2023-05-20T06:20:43.085Z,97602.53
2023-05-20T06:23:10.907Z,97602.53
2023-05-20T06:25:38.694Z,97610.13
2023-05-20T06:28:06.511Z,97595.81
2023-05-20T06:30:34.322Z,97602.09
2023-05-20T06:33:02.180Z,97595.56
2023-05-20T06:35:31.413Z,97594.59
2023-05-20T06:38:01.198Z,97595.94
2023-05-20T06:40:29.161Z,97600.25
2023-05-20T06:42:56.915Z,97609.38
2023-05-20T06:45:24.736Z,97599.78
2023-05-20T06:47:54.274Z,97599.56
2023-05-20T06:50:22.156Z,97593.72
2023-05-20T06:52:51.349Z,97598.25
2023-05-20T06:55:19.369Z,97596.59
2023-05-20T06:57:47.322Z,97592.19
2023-05-20T07:00:15.728Z,97584.28
2023-05-20T07:02:43.812Z,97580.69
2023-05-20T07:05:11.977Z,97588.44
2023-05-20T07:07:40.205Z,97584.19
2023-05-20T07:10:10.456Z,97588.44
2023-05-20T07:12:38.253Z,97583.47
2023-05-20T07:15:06.964Z,97579.66
2023-05-20T07:17:34.816Z,97580.44
2023-05-20T07:20:02.652Z,97587.75
2023-05-20T07:22:30.567Z,97569.78
2023-05-20T07:24:59.535Z,97574.53
2023-05-20T07:27:28.716Z,97573.47
2023-05-20T07:29:56.502Z,97589.50
2023-05-20T07:32:24.354Z,97584.22
2023-05-20T07:34:52.312Z,97570.81
2023-05-20T07:37:20.158Z,97573.53
2023-05-20T07:39:48.225Z,97578.03
2023-05-20T07:42:16.112Z,97568.09
2023-05-20T07:44:45.276Z,97557.44
2023-05-20T07:47:13.205Z,97553.25
2023-05-20T07:49:41.009Z,97559.81
2023-05-20T07:52:09.035Z,97565.44
2023-05-20T07:54:36.866Z,97561.50
2023-05-20T07:57:04.845Z,97557.13
2023-05-20T07:59:32.620Z,97560.66
2023-05-20T08:02:01.877Z,97555.19
2023-05-20T08:04:29.816Z,97550.28
2023-05-20T08:06:57.736Z,97553.63
2023-05-20T08:09:25.580Z,97551.84
2023-05-20T08:11:53.394Z,97548.75
2023-05-20T08:14:21.274Z,97546.44
2023-05-20T08:16:49.116Z,97548.22
2023-05-20T08:19:18.378Z,97541.50
2023-05-20T08:21:46.531Z,97545.97
2023-05-20T08:24:14.449Z,97556.28
2023-05-20T08:26:42.214Z,97548.31
2023-05-20T08:29:10.026Z,97554.06
2023-05-20T08:31:37.890Z,97551.50
2023-05-20T08:34:05.746Z,97553.47
2023-05-20T08:36:34.863Z,97553.47
2023-05-20T08:39:02.969Z,97557.66
2023-05-20T08:41:31.043Z,97553.75
2023-05-20T08:44:00.656Z,97552.34
2023-05-20T08:46:28.933Z,97559.63
2023-05-20T08:48:57.278Z,97549.91
2023-05-20T08:51:28.450Z,97552.38
2023-05-20T08:53:57.633Z,97547.44
2023-05-20T08:56:29.329Z,97553.88
2023-05-20T08:58:58.716Z,97552.22
2023-05-20T09:01:26.983Z,97544.81
2023-05-20T09:03:54.849Z,97551.44
2023-05-20T09:06:22.655Z,97552.72
2023-05-20T09:08:51.412Z,97552.94
2023-05-20T09:11:21.834Z,97557.50
2023-05-20T09:13:51.225Z,97553.31
2023-05-20T09:16:19.154Z,97552.97
2023-05-20T09:18:47.710Z,97552.00
2023-05-20T09:21:15.559Z,97554.13
2023-05-20T09:23:48.688Z,97551.56
2023-05-20T09:26:16.620Z,97548.78
2023-05-20T09:28:45.774Z,97548.75
2023-05-20T09:31:15.210Z,97546.97
2023-05-20T09:33:43.273Z,97512.88
2023-05-20T09:36:11.595Z,97544.78
2023-05-20T09:38:40.648Z,97551.06
2023-05-20T09:41:09.793Z,97540.03
2023-05-20T09:43:37.866Z,97548.75
2023-05-20T09:46:08.320Z,97548.94
2023-05-20T09:48:37.376Z,97548.41
2023-05-20T09:51:06.418Z,97536.38
2023-05-20T09:53:34.185Z,97542.97
2023-05-20T09:56:02.083Z,97531.91
2023-05-20T09:58:30.756Z,97533.59
2023-05-20T10:00:58.561Z,97538.22
2023-05-20T10:03:28.350Z,97535.06
2023-05-20T10:06:11.186Z,97528.66
2023-05-20T10:08:51.157Z,97523.13
2023-05-20T10:11:25.289Z,97523.34
2023-05-20T10:14:08.109Z,97517.94
2023-05-20T10:16:45.736Z,97522.34
2023-05-20T10:19:26.112Z,97517.56
2023-05-20T10:22:02.110Z,97524.34
2023-05-20T10:24:33.707Z,97518.75
2023-05-20T10:27:03.594Z,97524.72
2023-05-20T10:29:31.651Z,97518.13
2023-05-20T10:31:59.464Z,97521.09
2023-05-20T10:34:28.827Z,97526.19
2023-05-20T10:37:00.253Z,97530.38
2023-05-20T10:39:28.733Z,97537.06
2023-05-20T10:42:08.232Z,97527.38
2023-05-20T10:44:43.555Z,97534.31
2023-05-20T10:49:46.125Z,97530.25
2023-05-20T10:52:14.534Z,97524.59
2023-05-20T10:54:45.813Z,97521.41
2023-05-20T10:57:13.720Z,97523.94
2023-05-20T10:59:42.432Z,97522.56
2023-05-20T11:02:12.600Z,97515.06
2023-05-20T11:04:40.604Z,97535.03
2023-05-20T11:07:10.004Z,97520.91
2023-05-20T11:09:38.339Z,97526.28
2023-05-20T11:12:06.860Z,97515.94
2023-05-20T11:14:34.726Z,97509.63
2023-05-20T11:17:08.996Z,97507.53
2023-05-20T11:19:38.458Z,97489.56
2023-05-20T11:22:10.011Z,97483.13
2023-05-20T11:24:38.775Z,97476.31
2023-05-20T11:27:07.714Z,97476.47
2023-05-20T11:29:35.574Z,97469.75
2023-05-20T11:32:03.428Z,97447.25
2023-05-20T11:34:35.599Z,97467.72
2023-05-20T11:37:03.474Z,97462.06
2023-05-20T11:39:32.849Z,97462.28
2023-05-20T11:42:00.809Z,97482.31
2023-05-20T11:44:28.639Z,97473.94
2023-05-20T11:47:01.320Z,97481.81
2023-05-20T11:49:29.332Z,97481.22
2023-05-20T11:51:57.978Z,97476.00
2023-05-20T11:54:26.110Z,97472.81
2023-05-20T11:56:55.892Z,97481.44
2023-05-20T11:59:25.519Z,97470.13
2023-05-20T12:01:56.614Z,97470.69
2023-05-20T12:04:24.586Z,97473.44
2023-05-20T12:06:53.232Z,97470.88
2023-05-20T12:09:21.115Z,97455.41
2023-05-20T12:11:48.958Z,97455.41
2023-05-20T12:14:18.193Z,97457.59
2023-05-20T12:16:46.054Z,97458.72
2023-05-20T12:19:13.913Z,97458.50
2023-05-20T12:21:41.748Z,97452.03
2023-05-20T12:24:10.426Z,97457.50
2023-05-20T12:26:38.247Z,97452.84
2023-05-20T12:29:06.993Z,97458.94
2023-05-20T12:31:36.312Z,97458.03
2023-05-20T12:34:04.247Z,97445.38
2023-05-20T12:36:32.417Z,97459.34
2023-05-20T12:39:00.513Z,97444.44
2023-05-20T12:41:28.325Z,97440.28
2023-05-20T12:43:56.170Z,97440.13
2023-05-20T12:46:24.167Z,97451.75
2023-05-20T12:48:53.732Z,97451.16
2023-05-20T12:51:21.635Z,97442.63
2023-05-20T12:53:49.682Z,97441.06
2023-05-20T12:56:17.795Z,97436.41
2023-05-20T12:58:45.609Z,97446.16
2023-05-20T13:01:13.524Z,97440.91
2023-05-20T13:03:41.615Z,97449.72
2023-05-20T13:06:11.028Z,97435.09
2023-05-20T13:08:38.796Z,97438.44
2023-05-20T13:11:06.804Z,97442.84
2023-05-20T13:13:34.611Z,97432.47
2023-05-20T13:16:02.762Z,97436.09
2023-05-20T13:18:30.592Z,97438.03
2023-05-20T13:20:58.365Z,97433.25
2023-05-20T13:23:27.597Z,97432.59
2023-05-20T13:25:57.931Z,97423.38
2023-05-20T13:28:25.817Z,97429.66
2023-05-20T13:30:53.707Z,97428.81
2023-05-20T13:33:23.157Z,97432.34
2023-05-20T13:35:51.680Z,97430.34
2023-05-20T13:38:19.554Z,97429.59
2023-05-20T13:40:49.182Z,97443.16
2023-05-20T13:43:17.193Z,97430.34
2023-05-20T13:45:45.267Z,97430.34
2023-05-20T13:48:13.142Z,97424.78
2023-05-20T13:50:41.159Z,97411.50
2023-05-20T13:53:12.518Z,97416.34
2023-05-20T13:55:40.503Z,97411.88
2023-05-20T13:58:09.982Z,97408.44
2023-05-20T14:00:38.406Z,97410.31
2023-05-20T14:03:09.025Z,97408.44
2023-05-20T14:05:37.182Z,97414.84
2023-05-20T14:08:05.602Z,97408.44
2023-05-20T14:10:33.606Z,97402.34
2023-05-20T14:13:02.193Z,97400.50
2023-05-20T14:15:31.514Z,97403.94
2023-05-20T14:17:59.581Z,97399.81
2023-05-20T14:20:27.493Z,97397.25
2023-05-20T14:22:55.408Z,97395.47
2023-05-20T14:25:23.275Z,97384.97
2023-05-20T14:27:51.160Z,97383.47
2023-05-20T14:30:19.299Z,97382.56
2023-05-20T14:32:48.554Z,97391.66
2023-05-20T14:35:16.881Z,97395.34
2023-05-20T14:37:44.741Z,97385.91
2023-05-20T14:40:13.354Z,97379.47
2023-05-20T14:42:41.318Z,97377.41
2023-05-20T14:45:10.642Z,97384.41
2023-05-20T14:47:40.125Z,97373.50
2023-05-20T14:50:10.146Z,97379.09
2023-05-20T14:52:38.014Z,97362.91
2023-05-20T14:55:06.549Z,97371.53
2023-05-20T14:57:34.385Z,97384.47
2023-05-20T15:00:02.351Z,97379.00
2023-05-20T15:02:30.201Z,97378.75
2023-05-20T15:04:58.245Z,97375.78
2023-05-20T15:07:27.720Z,97372.31
2023-05-20T15:09:55.583Z,97370.56
2023-05-20T15:12:23.439Z,97382.13
2023-05-20T15:14:51.275Z,97380.72
2023-05-20T15:17:19.120Z,97381.63
2023-05-20T15:19:46.894Z,97376.34
2023-05-20T15:22:14.743Z,97365.59
2023-05-20T15:24:43.899Z,97369.59
2023-05-20T15:27:11.745Z,97369.44
2023-05-20T15:29:40.805Z,97369.53
2023-05-20T15:32:08.910Z,97367.41
2023-05-20T15:34:36.693Z,97361.94
2023-05-20T15:37:04.642Z,97365.88
2023-05-20T15:39:32.422Z,97372.59
2023-05-20T15:42:02.969Z,97357.69
2023-05-20T15:44:31.056Z,97360.06
2023-05-20T15:46:58.950Z,97359.78
2023-05-20T15:49:26.852Z,97338.66
2023-05-20T15:52:02.822Z,97359.28
2023-05-20T15:54:31.900Z,97357.16
2023-05-20T15:57:01.136Z,97359.19
2023-05-20T15:59:28.970Z,97352.97
2023-05-20T16:01:56.800Z,97354.13
2023-05-20T16:04:24.843Z,97356.13
2023-05-20T16:06:52.728Z,97351.69
2023-05-20T16:09:20.566Z,97360.34
2023-05-20T16:11:48.465Z,97358.59
2023-05-20T16:14:17.633Z,97361.22
2023-05-20T16:16:45.636Z,97364.44
2023-05-20T16:19:13.562Z,97367.66
2023-05-20T16:21:41.577Z,97366.00
2023-05-20T16:24:09.376Z,97359.13
2023-05-20T16:26:37.183Z,97351.00
2023-05-20T16:29:04.976Z,97356.16
2023-05-20T16:31:34.466Z,97354.19
2023-05-20T16:34:03.845Z,97356.91
2023-05-20T16:36:31.733Z,97349.38
2023-05-20T16:38:59.527Z,97351.50
2023-05-20T16:41:27.709Z,97352.66
2023-05-20T16:43:55.594Z,97364.44
2023-05-20T16:46:23.506Z,97354.94
2023-05-20T16:48:52.724Z,97345.47
2023-05-20T16:51:20.700Z,97347.59
2023-05-20T16:53:48.488Z,97354.50
2023-05-20T16:56:16.463Z,97360.56
2023-05-20T16:58:44.249Z,97365.19
2023-05-20T17:01:12.217Z,97369.06
2023-05-20T17:03:40.045Z,97363.06
2023-05-20T17:06:09.456Z,97357.88
2023-05-20T17:08:38.104Z,97364.94
2023-05-20T17:11:05.987Z,97366.94
2023-05-20T17:13:33.740Z,97370.47
2023-05-20T17:16:01.817Z,97372.97
2023-05-20T17:18:29.642Z,97376.25
2023-05-20T17:20:57.496Z,97376.91
2023-05-20T17:23:26.627Z,97368.63
2023-05-20T17:25:54.424Z,97380.94
2023-05-20T17:28:22.189Z,97381.38
2023-05-20T17:30:50.076Z,97378.84
2023-05-20T17:33:19.039Z,97383.53
2023-05-20T17:35:46.915Z,97382.00
2023-05-20T17:38:14.699Z,97379.50
2023-05-20T17:40:43.920Z,97367.44
2023-05-20T17:43:11.753Z,97378.91
2023-05-20T17:45:39.538Z,97370.38
2023-05-20T17:48:09.433Z,97372.66
2023-05-20T17:50:39.339Z,97367.03
2023-05-20T17:53:07.220Z,97364.09
2023-05-20T17:55:36.626Z,97371.63
2023-05-20T17:58:07.188Z,97374.06
2023-05-20T18:00:41.951Z,97369.25
2023-05-20T18:03:10.370Z,97369.06
2023-05-20T18:05:38.333Z,97362.13
2023-05-20T18:08:06.524Z,97368.63
2023-05-20T18:10:34.576Z,97368.84
2023-05-20T18:13:02.653Z,97366.94
2023-05-20T18:15:31.766Z,97370.59
2023-05-20T18:17:59.656Z,97372.50
2023-05-20T18:20:27.476Z,97365.63
2023-05-20T18:22:58.496Z,97363.19
2023-05-20T18:25:26.862Z,97366.88
2023-05-20T18:27:54.712Z,97364.22
2023-05-20T18:30:23.295Z,97374.50
2023-05-20T18:32:53.311Z,97370.06
2023-05-20T18:35:21.189Z,97370.91
2023-05-20T18:37:49.034Z,97377.84
2023-05-20T18:40:16.834Z,97362.88
2023-05-20T18:42:44.621Z,97382.13
2023-05-20T18:45:13.032Z,97380.75
2023-05-20T18:47:40.851Z,97375.88
2023-05-20T18:50:11.253Z,97379.91
2023-05-20T18:52:39.053Z,97384.03
2023-05-20T18:55:07.879Z,97389.09
2023-05-20T18:57:35.735Z,97386.56
2023-05-20T19:00:07.674Z,97388.13
2023-05-20T19:02:35.501Z,97386.03
2023-05-20T19:05:03.364Z,97390.78
2023-05-20T19:07:33.148Z,97388.56
2023-05-20T19:10:01.286Z,97379.31
2023-05-20T19:12:29.248Z,97375.09
2023-05-20T19:14:57.168Z,97366.13
2023-05-20T19:17:25.135Z,97368.25
2023-05-20T19:19:52.960Z,97367.44
2023-05-20T19:22:20.776Z,97374.97
2023-05-20T19:24:49.942Z,97365.41
2023-05-20T19:27:17.826Z,97377.06
2023-05-20T19:29:45.627Z,97376.88
2023-05-20T19:32:13.459Z,97389.47
2023-05-20T19:34:41.682Z,97381.50
2023-05-20T19:37:09.492Z,97374.50
2023-05-20T19:39:37.487Z,97377.81
2023-05-20T19:42:07.009Z,97376.00
2023-05-20T19:44:34.784Z,97375.00
2023-05-20T19:47:02.639Z,97380.84
2023-05-20T19:49:30.565Z,97385.56
2023-05-20T19:51:58.360Z,97390.31
2023-05-20T19:54:27.618Z,97394.19
2023-05-20T19:56:55.479Z,97400.75
2023-05-20T19:59:24.645Z,97391.63
2023-05-20T20:01:52.502Z,97391.75
2023-05-20T20:04:20.498Z,97388.41
2023-05-20T20:06:48.991Z,97393.00
2023-05-20T20:09:17.327Z,97396.03
2023-05-20T20:11:45.156Z,97397.28
2023-05-20T20:14:13.811Z,97386.69
2023-05-20T20:16:48.751Z,97382.09
2023-05-20T20:19:22.690Z,97385.84
2023-05-20T20:21:53.020Z,97384.56
2023-05-20T20:24:21.246Z,97379.91
2023-05-20T20:26:49.063Z,97382.25
2023-05-20T20:29:16.871Z,97374.09
2023-05-20T20:31:46.057Z,97375.22
2023-05-20T20:34:13.919Z,97383.56
2023-05-20T20:36:44.865Z,97384.78
2023-05-20T20:39:18.949Z,97387.44
2023-05-20T20:41:47.364Z,97380.69
2023-05-20T20:44:18.620Z,97376.03
2023-05-20T20:46:50.779Z,97376.03
2023-05-20T20:49:18.942Z,97376.19
2023-05-20T20:51:47.224Z,97371.75
2023-05-20T20:54:15.336Z,97380.66
2023-05-20T20:56:45.548Z,97368.09
2023-05-20T20:59:15.673Z,97349.94
2023-05-20T21:01:44.838Z,97361.97
2023-05-20T21:04:14.549Z,97356.91
2023-05-20T21:06:46.022Z,97363.63
2023-05-20T21:09:14.266Z,97348.84
2023-05-20T21:11:42.928Z,97349.09
2023-05-20T21:14:10.983Z,97355.22
2023-05-20T21:16:39.116Z,97349.81
2023-05-20T21:19:07.035Z,97340.56
2023-05-20T21:21:36.265Z,97345.16
2023-05-20T21:24:04.108Z,97341.78
2023-05-20T21:26:31.878Z,97337.84
2023-05-20T21:28:59.682Z,97340.63
2023-05-20T21:31:27.473Z,97327.63
2023-05-20T21:33:55.321Z,97328.59
2023-05-20T21:36:23.181Z,97325.94
2023-05-20T21:38:52.342Z,97315.22
2023-05-20T21:41:20.118Z,97321.22
2023-05-20T21:43:47.944Z,97327.50
2023-05-20T21:46:16.068Z,97327.50
2023-05-20T21:48:44.301Z,97317.03
2023-05-20T21:51:12.137Z,97325.81
2023-05-20T21:53:40.165Z,97312.81
2023-05-20T21:56:09.549Z,97318.84
2023-05-20T21:58:40.894Z,97323.41
2023-05-20T22:01:09.840Z,97317.03
2023-05-20T22:03:38.507Z,97319.16
2023-05-20T22:06:07.012Z,97313.25
2023-05-20T22:08:35.242Z,97297.88
2023-05-20T22:11:07.542Z,97305.72
2023-05-20T22:13:41.502Z,97299.69
2023-05-20T22:16:10.267Z,97297.28
2023-05-20T22:18:38.517Z,97299.84
2023-05-20T22:21:07.102Z,97297.03
2023-05-20T22:23:35.118Z,97286.31
2023-05-20T22:26:02.981Z,97300.28
2023-05-20T22:28:30.855Z,97297.75
2023-05-20T22:31:00.791Z,97289.09
2023-05-20T22:33:28.856Z,97286.69
2023-05-20T22:35:58.252Z,97283.31
2023-05-20T22:38:26.176Z,97279.69
2023-05-20T22:40:54.004Z,97277.16
2023-05-20T22:43:23.515Z,97272.59
2023-05-20T22:45:51.769Z,97268.38
2023-05-20T22:48:23.119Z,97262.13
2023-05-20T22:50:51.220Z,97268.84
2023-05-20T22:53:19.011Z,97263.31
2023-05-20T22:55:46.942Z,97249.59
2023-05-20T22:58:14.881Z,97261.63
2023-05-20T23:00:44.571Z,97242.47
2023-05-20T23:03:13.359Z,97248.81
2023-05-20T23:05:43.073Z,97240.16
2023-05-20T23:08:10.923Z,97245.72
2023-05-20T23:10:39.184Z,97238.13
2023-05-20T23:13:07.262Z,97233.69
2023-05-20T23:15:35.354Z,97229.81
2023-05-20T23:18:03.782Z,97221.34
2023-05-20T23:20:31.841Z,97236.28
2023-05-20T23:23:08.237Z,97224.94
2023-05-20T23:25:39.596Z,97237.41
2023-05-20T23:28:07.922Z,97224.00
2023-05-20T23:30:35.959Z,97224.81
2023-05-20T23:33:04.759Z,97218.69
2023-05-20T23:35:32.873Z,97225.13
2023-05-20T23:38:02.476Z,97224.03
2023-05-20T23:40:30.561Z,97226.81
2023-05-20T23:42:58.734Z,97226.38
2023-05-20T23:45:26.759Z,97220.66
2023-05-20T23:47:55.677Z,97223.44
2023-05-20T23:50:23.723Z,97220.06
2023-05-20T23:52:52.459Z,97221.88
2023-05-20T23:55:21.897Z,97211.50
2023-05-20T23:57:50.663Z,97184.22
